sensor_id;sensor_type;location;lat;lon;timestamp;pressure;altitude;pressure_sealevel;temperature;humidity
75747;BME280;64363;52.198;21.020;2023-03-23T00:00:28;99744.56;;;10.04;78.41
75747;BME280;64363;52.198;21.020;2023-03-23T00:03:12;99742.84;;;10.03;78.39
75747;BME280;64363;52.198;21.020;2023-03-23T00:05:38;99740.13;;;10.05;78.07
75747;BME280;64363;52.198;21.020;2023-03-23T00:08:09;99736.59;;;10.04;77.75
75747;BME280;64363;52.198;21.020;2023-03-23T00:10:37;99735.72;;;10.04;78.12
75747;BME280;64363;52.198;21.020;2023-03-23T00:13:04;99741.69;;;10.10;77.79
75747;BME280;64363;52.198;21.020;2023-03-23T00:15:30;99735.41;;;10.11;77.65
75747;BME280;64363;52.198;21.020;2023-03-23T00:17:59;99742.66;;;10.08;78.09
75747;BME280;64363;52.198;21.020;2023-03-23T00:20:28;99740.16;;;10.03;78.14
75747;BME280;64363;52.198;21.020;2023-03-23T00:22:55;99735.09;;;9.97;78.18
75747;BME280;64363;52.198;21.020;2023-03-23T00:25:25;99730.88;;;9.92;78.49
75747;BME280;64363;52.198;21.020;2023-03-23T00:27:51;99733.72;;;9.87;78.49
75747;BME280;64363;52.198;21.020;2023-03-23T00:30:17;99733.91;;;9.82;78.58
75747;BME280;64363;52.198;21.020;2023-03-23T00:32:43;99736.75;;;9.78;79.03
75747;BME280;64363;52.198;21.020;2023-03-23T00:35:08;99732.47;;;9.74;78.92
75747;BME280;64363;52.198;21.020;2023-03-23T00:37:34;99732.56;;;9.71;79.36
75747;BME280;64363;52.198;21.020;2023-03-23T00:40:01;99720.81;;;9.76;79.25
75747;BME280;64363;52.198;21.020;2023-03-23T00:42:31;99720.53;;;9.84;78.96
75747;BME280;64363;52.198;21.020;2023-03-23T00:45:02;99728.63;;;9.81;78.61
75747;BME280;64363;52.198;21.020;2023-03-23T00:47:28;99719.81;;;9.79;79.07
75747;BME280;64363;52.198;21.020;2023-03-23T00:49:53;99726.84;;;9.81;78.71
75747;BME280;64363;52.198;21.020;2023-03-23T00:52:22;99717.06;;;9.82;78.61
75747;BME280;64363;52.198;21.020;2023-03-23T00:54:47;99708.94;;;9.85;78.56
75747;BME280;64363;52.198;21.020;2023-03-23T00:57:13;99706.47;;;9.80;78.92
75747;BME280;64363;52.198;21.020;2023-03-23T00:59:38;99711.50;;;9.88;78.14
75747;BME280;64363;52.198;21.020;2023-03-23T01:02:04;99704.50;;;9.85;78.74
75747;BME280;64363;52.198;21.020;2023-03-23T01:04:30;99706.16;;;9.88;78.60
75747;BME280;64363;52.198;21.020;2023-03-23T01:06:57;99698.00;;;9.93;78.30
75747;BME280;64363;52.198;21.020;2023-03-23T01:09:26;99698.19;;;9.88;78.42
75747;BME280;64363;52.198;21.020;2023-03-23T01:11:53;99704.41;;;9.87;78.23
75747;BME280;64363;52.198;21.020;2023-03-23T01:14:20;99698.03;;;9.91;77.90
75747;BME280;64363;52.198;21.020;2023-03-23T01:16:46;99686.03;;;9.81;78.38
75747;BME280;64363;52.198;21.020;2023-03-23T01:19:12;99704.50;;;9.85;78.54
75747;BME280;64363;52.198;21.020;2023-03-23T01:21:38;99693.16;;;9.80;78.67
75747;BME280;64363;52.198;21.020;2023-03-23T01:24:04;99697.38;;;9.86;78.33
75747;BME280;64363;52.198;21.020;2023-03-23T01:26:30;99694.72;;;9.86;78.52
75747;BME280;64363;52.198;21.020;2023-03-23T01:28:56;99698.53;;;9.79;78.69
75747;BME280;64363;52.198;21.020;2023-03-23T01:31:24;99712.13;;;9.71;78.88
75747;BME280;64363;52.198;21.020;2023-03-23T01:33:50;99698.03;;;9.91;77.78
75747;BME280;64363;52.198;21.020;2023-03-23T01:36:19;99704.31;;;9.90;78.02
75747;BME280;64363;52.198;21.020;2023-03-23T01:38:47;99703.84;;;9.79;78.50
75747;BME280;64363;52.198;21.020;2023-03-23T01:41:14;99702.16;;;9.78;78.91
75747;BME280;64363;52.198;21.020;2023-03-23T01:44:00;99700.78;;;9.90;78.20
75747;BME280;64363;52.198;21.020;2023-03-23T01:46:31;99708.44;;;9.75;78.64
75747;BME280;64363;52.198;21.020;2023-03-23T01:49:01;99693.91;;;9.84;78.67
75747;BME280;64363;52.198;21.020;2023-03-23T01:51:35;99695.94;;;9.77;78.69
75747;BME280;64363;52.198;21.020;2023-03-23T01:54:05;99693.47;;;9.73;79.35
75747;BME280;64363;52.198;21.020;2023-03-23T01:56:37;99687.53;;;9.66;79.61
75747;BME280;64363;52.198;21.020;2023-03-23T01:59:07;99685.81;;;9.64;79.46
75747;BME280;64363;52.198;21.020;2023-03-23T02:01:35;99686.00;;;9.59;79.37
75747;BME280;64363;52.198;21.020;2023-03-23T02:04:04;99680.94;;;9.53;79.75
75747;BME280;64363;52.198;21.020;2023-03-23T02:06:31;99674.84;;;9.50;80.12
75747;BME280;64363;52.198;21.020;2023-03-23T02:08:57;99676.34;;;9.57;79.79
75747;BME280;64363;52.198;21.020;2023-03-23T02:11:23;99674.72;;;9.53;80.05
75747;BME280;64363;52.198;21.020;2023-03-23T02:13:49;99676.59;;;9.51;80.35
75747;BME280;64363;52.198;21.020;2023-03-23T02:16:43;99677.44;;;9.51;80.17
75747;BME280;64363;52.198;21.020;2023-03-23T02:21:59;99667.00;;;9.47;80.34
75747;BME280;64363;52.198;21.020;2023-03-23T02:27:17;99664.56;;;9.40;81.00
75747;BME280;64363;52.198;21.020;2023-03-23T02:35:45;99661.78;;;9.44;81.03
75747;BME280;64363;52.198;21.020;2023-03-23T02:38:17;99673.25;;;9.46;80.77
75747;BME280;64363;52.198;21.020;2023-03-23T02:40:48;99657.97;;;9.51;80.28
75747;BME280;64363;52.198;21.020;2023-03-23T02:43:20;99657.09;;;9.50;80.51
75747;BME280;64363;52.198;21.020;2023-03-23T02:45:46;99660.56;;;9.52;80.38
75747;BME280;64363;52.198;21.020;2023-03-23T02:48:15;99656.94;;;9.55;80.32
75747;BME280;64363;52.198;21.020;2023-03-23T02:50:46;99655.00;;;9.58;80.46
75747;BME280;64363;52.198;21.020;2023-03-23T02:53:16;99653.22;;;9.59;80.50
75747;BME280;64363;52.198;21.020;2023-03-23T02:55:44;99652.56;;;9.52;80.64
75747;BME280;64363;52.198;21.020;2023-03-23T02:58:11;99641.13;;;9.50;80.44
75747;BME280;64363;52.198;21.020;2023-03-23T03:00:37;99640.72;;;9.61;80.11
75747;BME280;64363;52.198;21.020;2023-03-23T03:03:05;99662.81;;;9.63;80.01
75747;BME280;64363;52.198;21.020;2023-03-23T03:10:58;99664.25;;;9.48;80.57
75747;BME280;64363;52.198;21.020;2023-03-23T03:13:50;99659.69;;;9.52;80.25
75747;BME280;64363;52.198;21.020;2023-03-23T03:16:38;99657.84;;;9.54;80.35
75747;BME280;64363;52.198;21.020;2023-03-23T03:21:41;99662.31;;;9.75;79.49
75747;BME280;64363;52.198;21.020;2023-03-23T03:24:10;99656.19;;;9.73;79.58
75747;BME280;64363;52.198;21.020;2023-03-23T03:26:42;99648.47;;;9.67;79.67
75747;BME280;64363;52.198;21.020;2023-03-23T03:29:11;99650.88;;;9.73;79.61
75747;BME280;64363;52.198;21.020;2023-03-23T03:31:39;99659.03;;;9.68;79.82
75747;BME280;64363;52.198;21.020;2023-03-23T03:34:11;99656.81;;;9.58;80.21
75747;BME280;64363;52.198;21.020;2023-03-23T03:36:40;99660.16;;;9.63;79.86
75747;BME280;64363;52.198;21.020;2023-03-23T03:39:09;99666.63;;;9.56;80.21
75747;BME280;64363;52.198;21.020;2023-03-23T03:41:36;99673.13;;;9.49;80.61
75747;BME280;64363;52.198;21.020;2023-03-23T03:44:06;99669.00;;;9.40;80.79
75747;BME280;64363;52.198;21.020;2023-03-23T03:46:33;99674.63;;;9.32;81.48
75747;BME280;64363;52.198;21.020;2023-03-23T03:49:00;99673.59;;;9.36;81.32
75747;BME280;64363;52.198;21.020;2023-03-23T03:51:27;99674.75;;;9.29;81.41
75747;BME280;64363;52.198;21.020;2023-03-23T03:53:53;99657.97;;;9.27;81.54
75747;BME280;64363;52.198;21.020;2023-03-23T03:56:19;99666.88;;;9.26;81.66
75747;BME280;64363;52.198;21.020;2023-03-23T03:58:49;99664.41;;;9.22;82.15
75747;BME280;64363;52.198;21.020;2023-03-23T04:01:16;99660.91;;;9.20;81.84
75747;BME280;64363;52.198;21.020;2023-03-23T04:03:43;99653.22;;;9.12;82.47
75747;BME280;64363;52.198;21.020;2023-03-23T04:06:10;99639.13;;;9.10;82.51
75747;BME280;64363;52.198;21.020;2023-03-23T04:08:38;99644.44;;;9.10;82.56
75747;BME280;64363;52.198;21.020;2023-03-23T04:11:07;99637.38;;;9.09;82.59
75747;BME280;64363;52.198;21.020;2023-03-23T04:13:34;99651.56;;;9.10;82.57
75747;BME280;64363;52.198;21.020;2023-03-23T04:15:59;99637.50;;;9.06;82.57
75747;BME280;64363;52.198;21.020;2023-03-23T04:18:26;99637.72;;;9.00;82.81
75747;BME280;64363;52.198;21.020;2023-03-23T04:20:51;99647.00;;;9.13;81.96
75747;BME280;64363;52.198;21.020;2023-03-23T04:23:19;99650.53;;;9.14;82.19
75747;BME280;64363;52.198;21.020;2023-03-23T04:25:46;99641.09;;;9.05;82.20
75747;BME280;64363;52.198;21.020;2023-03-23T04:28:13;99640.22;;;9.05;82.64
75747;BME280;64363;52.198;21.020;2023-03-23T04:30:42;99644.44;;;9.10;82.17
75747;BME280;64363;52.198;21.020;2023-03-23T04:33:09;99644.44;;;9.10;82.47
75747;BME280;64363;52.198;21.020;2023-03-23T04:35:43;99646.28;;;9.08;82.30
75747;BME280;64363;52.198;21.020;2023-03-23T04:38:12;99649.94;;;9.06;82.64
75747;BME280;64363;52.198;21.020;2023-03-23T04:40:40;99639.47;;;9.01;82.39
75747;BME280;64363;52.198;21.020;2023-03-23T04:43:06;99648.34;;;9.00;82.90
75747;BME280;64363;52.198;21.020;2023-03-23T04:45:33;99644.44;;;9.10;82.07
75747;BME280;64363;52.198;21.020;2023-03-23T04:47:59;99640.91;;;9.10;82.12
75747;BME280;64363;52.198;21.020;2023-03-23T04:50:31;99635.88;;;9.02;82.32
75747;BME280;64363;52.198;21.020;2023-03-23T04:52:59;99642.13;;;9.01;82.64
75747;BME280;64363;52.198;21.020;2023-03-23T04:55:30;99640.34;;;9.02;82.93
75747;BME280;64363;52.198;21.020;2023-03-23T04:57:57;99632.41;;;9.00;82.78
75747;BME280;64363;52.198;21.020;2023-03-23T05:00:26;99647.41;;;9.03;82.69
75747;BME280;64363;52.198;21.020;2023-03-23T05:02:53;99634.72;;;9.09;82.75
75747;BME280;64363;52.198;21.020;2023-03-23T05:05:21;99629.28;;;9.12;82.34
75747;BME280;64363;52.198;21.020;2023-03-23T05:07:48;99637.81;;;9.22;81.90
75747;BME280;64363;52.198;21.020;2023-03-23T05:10:14;99643.75;;;9.28;81.67
75747;BME280;64363;52.198;21.020;2023-03-23T05:12:42;99644.38;;;9.35;80.80
75747;BME280;64363;52.198;21.020;2023-03-23T05:15:09;99634.25;;;9.45;81.35
75747;BME280;64363;52.198;21.020;2023-03-23T05:17:36;99632.03;;;9.56;80.45
75747;BME280;64363;52.198;21.020;2023-03-23T05:20:03;99627.53;;;9.58;79.62
75747;BME280;64363;52.198;21.020;2023-03-23T05:22:31;99623.94;;;9.59;79.64
75747;BME280;64363;52.198;21.020;2023-03-23T05:24:59;99642.56;;;9.59;79.83
75747;BME280;64363;52.198;21.020;2023-03-23T05:27:28;99634.50;;;9.60;79.66
75747;BME280;64363;52.198;21.020;2023-03-23T05:29:56;99638.66;;;9.67;79.05
75747;BME280;64363;52.198;21.020;2023-03-23T05:32:24;99618.66;;;9.57;79.53
75747;BME280;64363;52.198;21.020;2023-03-23T05:34:56;99625.59;;;9.61;79.16
75747;BME280;64363;52.198;21.020;2023-03-23T05:37:23;99632.78;;;9.81;79.00
75747;BME280;64363;52.198;21.020;2023-03-23T05:39:49;99631.91;;;9.80;79.03
75747;BME280;64363;52.198;21.020;2023-03-23T05:42:20;99633.53;;;9.84;78.39
75747;BME280;64363;52.198;21.020;2023-03-23T05:44:46;99635.16;;;9.88;77.67
75747;BME280;64363;52.198;21.020;2023-03-23T05:47:13;99641.88;;;9.75;78.26
75747;BME280;64363;52.198;21.020;2023-03-23T05:49:39;99639.59;;;9.88;78.07
75747;BME280;64363;52.198;21.020;2023-03-23T05:52:04;99640.09;;;9.98;77.88
75747;BME280;64363;52.198;21.020;2023-03-23T05:54:30;99631.59;;;9.88;77.72
75747;BME280;64363;52.198;21.020;2023-03-23T05:56:56;99642.06;;;10.14;76.83
75747;BME280;64363;52.198;21.020;2023-03-23T05:59:22;99651.56;;;10.21;76.58
75747;BME280;64363;52.198;21.020;2023-03-23T06:01:48;99641.84;;;10.20;76.96
75747;BME280;64363;52.198;21.020;2023-03-23T06:04:13;99647.63;;;10.08;77.08
75747;BME280;64363;52.198;21.020;2023-03-23T06:06:39;99650.25;;;10.10;76.99
75747;BME280;64363;52.198;21.020;2023-03-23T06:09:07;99643.19;;;10.09;77.10
75747;BME280;64363;52.198;21.020;2023-03-23T06:11:33;99647.41;;;10.14;77.33
75747;BME280;64363;52.198;21.020;2023-03-23T06:13:59;99641.25;;;10.12;76.84
75747;BME280;64363;52.198;21.020;2023-03-23T06:16:25;99646.09;;;10.24;77.30
75747;BME280;64363;52.198;21.020;2023-03-23T06:18:50;99641.09;;;10.39;75.98
75747;BME280;64363;52.198;21.020;2023-03-23T06:21:16;99652.81;;;10.35;76.49
75747;BME280;64363;52.198;21.020;2023-03-23T06:23:45;99649.31;;;10.32;76.42
75747;BME280;64363;52.198;21.020;2023-03-23T06:26:13;99650.50;;;10.25;76.56
75747;BME280;64363;52.198;21.020;2023-03-23T06:28:39;99647.72;;;10.28;76.70
75747;BME280;64363;52.198;21.020;2023-03-23T06:31:06;99646.13;;;10.45;76.28
75747;BME280;64363;52.198;21.020;2023-03-23T06:33:33;99647.88;;;10.46;75.82
75747;BME280;64363;52.198;21.020;2023-03-23T06:36:00;99644.28;;;10.67;75.50
75747;BME280;64363;52.198;21.020;2023-03-23T06:38:25;99653.88;;;10.71;75.44
75747;BME280;64363;52.198;21.020;2023-03-23T06:40:52;99657.00;;;10.80;75.02
75747;BME280;64363;52.198;21.020;2023-03-23T06:43:19;99658.97;;;10.96;74.03
75747;BME280;64363;52.198;21.020;2023-03-23T06:45:45;99655.47;;;10.95;74.25
75747;BME280;64363;52.198;21.020;2023-03-23T06:48:10;99663.75;;;11.08;74.18
75747;BME280;64363;52.198;21.020;2023-03-23T06:50:36;99658.78;;;11.00;74.16
75747;BME280;64363;52.198;21.020;2023-03-23T06:53:02;99653.66;;;10.96;74.32
75747;BME280;64363;52.198;21.020;2023-03-23T06:55:28;99655.97;;;11.03;73.89
75747;BME280;64363;52.198;21.020;2023-03-23T06:57:53;99653.81;;;11.11;74.25
75747;BME280;64363;52.198;21.020;2023-03-23T07:00:19;99651.56;;;11.22;73.80
75747;BME280;64363;52.198;21.020;2023-03-23T07:02:45;99661.88;;;11.49;72.13
75747;BME280;64363;52.198;21.020;2023-03-23T07:05:11;99650.63;;;11.42;72.33
75747;BME280;64363;52.198;21.020;2023-03-23T07:07:39;99648.81;;;11.61;71.56
75747;BME280;64363;52.198;21.020;2023-03-23T07:10:07;99658.72;;;11.59;72.12
75747;BME280;64363;52.198;21.020;2023-03-23T07:12:35;99659.72;;;11.57;72.04
75747;BME280;64363;52.198;21.020;2023-03-23T07:15:05;99662.28;;;11.79;71.96
75747;BME280;64363;52.198;21.020;2023-03-23T07:17:33;99656.41;;;11.89;70.94
75747;BME280;64363;52.198;21.020;2023-03-23T07:19:58;99653.69;;;12.08;70.53
75747;BME280;64363;52.198;21.020;2023-03-23T07:22:24;99662.94;;;12.19;70.44
75747;BME280;64363;52.198;21.020;2023-03-23T07:24:50;99668.38;;;12.35;69.71
75747;BME280;64363;52.198;21.020;2023-03-23T07:27:19;99663.28;;;12.31;69.33
75747;BME280;64363;52.198;21.020;2023-03-23T07:29:45;99666.09;;;12.45;68.61
75747;BME280;64363;52.198;21.020;2023-03-23T07:32:11;99668.84;;;12.60;68.31
75747;BME280;64363;52.198;21.020;2023-03-23T07:34:37;99667.28;;;12.56;67.92
75747;BME280;64363;52.198;21.020;2023-03-23T07:37:04;99667.75;;;12.64;67.65
75747;BME280;64363;52.198;21.020;2023-03-23T07:39:30;99670.66;;;12.77;67.12
75747;BME280;64363;52.198;21.020;2023-03-23T07:41:57;99667.06;;;12.95;66.77
75747;BME280;64363;52.198;21.020;2023-03-23T07:44:23;99661.53;;;12.81;66.35
75747;BME280;64363;52.198;21.020;2023-03-23T07:46:49;99661.25;;;12.87;66.93
75747;BME280;64363;52.198;21.020;2023-03-23T07:49:15;99669.56;;;12.98;66.65
75747;BME280;64363;52.198;21.020;2023-03-23T07:51:41;99665.41;;;13.10;66.01
75747;BME280;64363;52.198;21.020;2023-03-23T07:54:06;99665.91;;;13.34;64.77
75747;BME280;64363;52.198;21.020;2023-03-23T07:56:36;99661.25;;;13.53;63.87
75747;BME280;64363;52.198;21.020;2023-03-23T07:59:06;99647.41;;;13.45;63.85
75747;BME280;64363;52.198;21.020;2023-03-23T08:01:32;99666.13;;;13.62;63.19
75747;BME280;64363;52.198;21.020;2023-03-23T08:03:58;99659.72;;;13.80;62.31
75747;BME280;64363;52.198;21.020;2023-03-23T08:06:25;99651.16;;;13.89;62.56
75747;BME280;64363;52.198;21.020;2023-03-23T08:08:51;99660.59;;;13.96;62.32
75747;BME280;64363;52.198;21.020;2023-03-23T08:11:18;99655.22;;;13.96;61.39
75747;BME280;64363;52.198;21.020;2023-03-23T08:13:45;99648.66;;;13.86;61.74
75747;BME280;64363;52.198;21.020;2023-03-23T08:16:11;99653.53;;;13.95;61.89
75747;BME280;64363;52.198;21.020;2023-03-23T08:18:37;99649.56;;;14.32;61.27
75747;BME280;64363;52.198;21.020;2023-03-23T08:21:05;99648.34;;;14.53;59.96
75747;BME280;64363;52.198;21.020;2023-03-23T08:23:35;99638.34;;;14.71;59.33
75747;BME280;64363;52.198;21.020;2023-03-23T08:26:03;99639.81;;;14.91;58.70
75747;BME280;64363;52.198;21.020;2023-03-23T08:28:30;99641.25;;;15.11;57.91
75747;BME280;64363;52.198;21.020;2023-03-23T08:30:55;99626.59;;;15.30;57.22
75747;BME280;64363;52.198;21.020;2023-03-23T08:33:22;99620.47;;;15.28;56.64
75747;BME280;64363;52.198;21.020;2023-03-23T08:35:58;99602.44;;;15.16;56.60
75747;BME280;64363;52.198;21.020;2023-03-23T08:38:24;99614.78;;;15.33;56.98
75747;BME280;64363;52.198;21.020;2023-03-23T08:40:50;99605.56;;;15.37;56.09
75747;BME280;64363;52.198;21.020;2023-03-23T08:43:17;99608.47;;;15.20;56.35
75747;BME280;64363;52.198;21.020;2023-03-23T08:45:43;99603.75;;;15.37;56.21
75747;BME280;64363;52.198;21.020;2023-03-23T08:48:09;99611.94;;;15.50;56.40
75747;BME280;64363;52.198;21.020;2023-03-23T08:50:36;99611.94;;;15.50;55.27
75747;BME280;64363;52.198;21.020;2023-03-23T08:53:02;99618.47;;;15.60;55.24
75747;BME280;64363;52.198;21.020;2023-03-23T08:55:28;99618.72;;;15.70;54.22
75747;BME280;64363;52.198;21.020;2023-03-23T08:57:54;99616.88;;;15.70;54.64
75747;BME280;64363;52.198;21.020;2023-03-23T09:00:21;99613.13;;;15.73;54.17
75747;BME280;64363;52.198;21.020;2023-03-23T09:02:51;99610.41;;;15.87;53.82
75747;BME280;64363;52.198;21.020;2023-03-23T09:05:20;99619.72;;;15.96;53.61
75747;BME280;64363;52.198;21.020;2023-03-23T09:07:49;99609.91;;;15.95;53.15
75747;BME280;64363;52.198;21.020;2023-03-23T09:10:16;99612.25;;;16.13;53.33
75747;BME280;64363;52.198;21.020;2023-03-23T09:12:43;99617.38;;;16.04;52.97
75747;BME280;64363;52.198;21.020;2023-03-23T09:15:11;99620.09;;;15.89;53.14
75747;BME280;64363;52.198;21.020;2023-03-23T09:17:45;99620.75;;;15.93;53.17
75747;BME280;64363;52.198;21.020;2023-03-23T09:20:13;99621.09;;;15.74;53.78
75747;BME280;64363;52.198;21.020;2023-03-23T09:22:41;99624.25;;;15.81;53.78
75747;BME280;64363;52.198;21.020;2023-03-23T09:25:08;99624.63;;;15.89;53.12
75747;BME280;64363;52.198;21.020;2023-03-23T09:27:35;99624.75;;;15.73;53.17
75747;BME280;64363;52.198;21.020;2023-03-23T09:30:14;99618.34;;;15.76;53.28
75747;BME280;64363;52.198;21.020;2023-03-23T09:32:40;99618.78;;;15.82;53.12
75747;BME280;64363;52.198;21.020;2023-03-23T09:35:09;99603.38;;;15.99;52.46
75747;BME280;64363;52.198;21.020;2023-03-23T09:37:38;99619.41;;;16.27;51.84
75747;BME280;64363;52.198;21.020;2023-03-23T09:40:07;99604.38;;;16.50;51.52
75747;BME280;64363;52.198;21.020;2023-03-23T09:42:42;99603.81;;;16.59;51.04
75747;BME280;64363;52.198;21.020;2023-03-23T09:50:28;99571.72;;;16.94;50.01
75747;BME280;64363;52.198;21.020;2023-03-23T09:53:08;99584.47;;;16.92;49.56
75747;BME280;64363;52.198;21.020;2023-03-23T09:55:36;99574.19;;;17.35;49.61
75747;BME280;64363;52.198;21.020;2023-03-23T09:58:22;99583.34;;;17.32;48.08
75747;BME280;64363;52.198;21.020;2023-03-23T10:03:35;99574.69;;;17.52;47.54
75747;BME280;64363;52.198;21.020;2023-03-23T10:06:02;99561.16;;;17.28;48.44
75747;BME280;64363;52.198;21.020;2023-03-23T10:08:30;99573.00;;;17.26;48.95
75747;BME280;64363;52.198;21.020;2023-03-23T10:11:03;99574.19;;;17.22;48.74
75747;BME280;64363;52.198;21.020;2023-03-23T10:14:00;99567.81;;;17.36;48.56
75747;BME280;64363;52.198;21.020;2023-03-23T10:16:32;99563.03;;;17.52;48.18
75747;BME280;64363;52.198;21.020;2023-03-23T10:19:18;99558.09;;;17.58;48.59
75747;BME280;64363;52.198;21.020;2023-03-23T10:21:52;99555.88;;;18.00;47.12
75747;BME280;64363;52.198;21.020;2023-03-23T10:27:19;99548.84;;;19.13;40.96
75747;BME280;64363;52.198;21.020;2023-03-23T10:29:53;99546.16;;;19.24;40.51
75747;BME280;64363;52.198;21.020;2023-03-23T10:32:38;99537.34;;;20.19;38.81
75747;BME280;64363;52.198;21.020;2023-03-23T10:35:11;99539.56;;;21.08;36.81
75747;BME280;64363;52.198;21.020;2023-03-23T10:37:46;99540.06;;;21.93;35.70
75747;BME280;64363;52.198;21.020;2023-03-23T10:40:18;99545.00;;;21.78;34.72
75747;BME280;64363;52.198;21.020;2023-03-23T10:42:45;99541.13;;;21.11;36.83
75747;BME280;64363;52.198;21.020;2023-03-23T10:45:22;99537.34;;;20.72;37.59
75747;BME280;64363;52.198;21.020;2023-03-23T10:48:12;99539.38;;;21.00;37.45
75747;BME280;64363;52.198;21.020;2023-03-23T10:50:42;99534.41;;;23.00;33.44
75747;BME280;64363;52.198;21.020;2023-03-23T10:53:19;99535.63;;;22.69;34.26
75747;BME280;64363;52.198;21.020;2023-03-23T10:55:46;99526.00;;;21.88;35.14
75747;BME280;64363;52.198;21.020;2023-03-23T10:58:23;99550.44;;;20.46;36.96
75747;BME280;64363;52.198;21.020;2023-03-23T11:00:49;99544.50;;;20.20;37.47
75747;BME280;64363;52.198;21.020;2023-03-23T11:05:47;99518.50;;;20.91;35.25
75747;BME280;64363;52.198;21.020;2023-03-23T11:08:20;99525.53;;;20.73;34.91
75747;BME280;64363;52.198;21.020;2023-03-23T11:10:52;99529.13;;;19.89;37.06
75747;BME280;64363;52.198;21.020;2023-03-23T11:13:21;99541.44;;;19.82;37.51
75747;BME280;64363;52.198;21.020;2023-03-23T11:15:49;99523.75;;;19.78;37.73
75747;BME280;64363;52.198;21.020;2023-03-23T11:18:20;99525.38;;;20.01;37.62
75747;BME280;64363;52.198;21.020;2023-03-23T11:20:54;99509.34;;;19.77;37.48
75747;BME280;64363;52.198;21.020;2023-03-23T11:23:30;99508.75;;;19.74;37.46
75747;BME280;64363;52.198;21.020;2023-03-23T11:26:31;99510.47;;;20.06;37.22
75747;BME280;64363;52.198;21.020;2023-03-23T11:29:06;99500.28;;;20.31;37.12
75747;BME280;64363;52.198;21.020;2023-03-23T11:31:39;99495.81;;;20.09;37.45
75747;BME280;64363;52.198;21.020;2023-03-23T11:34:26;99493.78;;;20.22;37.15
75747;BME280;64363;52.198;21.020;2023-03-23T11:37:00;99484.13;;;20.40;36.47
75747;BME280;64363;52.198;21.020;2023-03-23T11:39:31;99487.38;;;20.85;36.34
75747;BME280;64363;52.198;21.020;2023-03-23T11:42:00;99481.41;;;20.91;36.04
75747;BME280;64363;52.198;21.020;2023-03-23T11:44:41;99491.56;;;20.69;36.98
75747;BME280;64363;52.198;21.020;2023-03-23T11:47:17;99470.75;;;20.28;36.45
75747;BME280;64363;52.198;21.020;2023-03-23T11:50:20;99471.06;;;19.93;37.21
75747;BME280;64363;52.198;21.020;2023-03-23T11:53:00;99469.88;;;19.75;36.20
75747;BME280;64363;52.198;21.020;2023-03-23T11:58:02;99459.53;;;19.80;36.84
75747;BME280;64363;52.198;21.020;2023-03-23T12:00:32;99465.63;;;19.93;35.97
75747;BME280;64363;52.198;21.020;2023-03-23T12:03:09;99454.88;;;20.23;35.46
75747;BME280;64363;52.198;21.020;2023-03-23T12:05:43;99453.44;;;20.19;35.88
75747;BME280;64363;52.198;21.020;2023-03-23T12:11:35;99442.66;;;19.55;37.30
75747;BME280;64363;52.198;21.020;2023-03-23T12:19:47;99446.09;;;20.10;37.05
75747;BME280;64363;52.198;21.020;2023-03-23T12:44:52;99418.44;;;19.54;38.26
75747;BME280;64363;52.198;21.020;2023-03-23T12:47:57;99428.31;;;19.33;39.03
75747;BME280;64363;52.198;21.020;2023-03-23T12:50:35;99417.03;;;19.16;39.90
75747;BME280;64363;52.198;21.020;2023-03-23T12:53:13;99418.56;;;19.52;39.68
75747;BME280;64363;52.198;21.020;2023-03-23T12:58:49;99416.41;;;19.67;38.68
75747;BME280;64363;52.198;21.020;2023-03-23T13:01:25;99426.84;;;19.72;38.16
75747;BME280;64363;52.198;21.020;2023-03-23T13:03:57;99416.41;;;19.67;38.06
75747;BME280;64363;52.198;21.020;2023-03-23T13:06:31;99412.53;;;19.60;38.09
75747;BME280;64363;52.198;21.020;2023-03-23T13:09:05;99442.47;;;19.03;39.52
75747;BME280;64363;52.198;21.020;2023-03-23T13:11:36;99423.31;;;19.06;39.84
75747;BME280;64363;52.198;21.020;2023-03-23T13:14:16;99438.81;;;18.82;39.67
75747;BME280;64363;52.198;21.020;2023-03-23T13:23:18;99397.78;;;18.99;40.29
75747;BME280;64363;52.198;21.020;2023-03-23T13:26:00;99410.78;;;18.94;40.51
75747;BME280;64363;52.198;21.020;2023-03-23T13:28:29;99421.88;;;18.68;41.03
75747;BME280;64363;52.198;21.020;2023-03-23T13:30:58;99418.69;;;18.63;41.50
75747;BME280;64363;52.198;21.020;2023-03-23T13:33:24;99416.50;;;18.57;41.54
75747;BME280;64363;52.198;21.020;2023-03-23T13:35:50;99414.47;;;18.48;41.89
75747;BME280;64363;52.198;21.020;2023-03-23T13:38:27;99401.84;;;18.49;41.92
75747;BME280;64363;52.198;21.020;2023-03-23T13:40:54;99406.25;;;18.50;41.84
75747;BME280;64363;52.198;21.020;2023-03-23T13:43:28;99426.78;;;18.52;41.45
75747;BME280;64363;52.198;21.020;2023-03-23T13:45:54;99422.81;;;18.45;41.08
75747;BME280;64363;52.198;21.020;2023-03-23T13:48:24;99421.38;;;18.52;40.75
75747;BME280;64363;52.198;21.020;2023-03-23T13:53:52;99415.72;;;18.55;41.07
75747;BME280;64363;52.198;21.020;2023-03-23T13:56:25;99408.72;;;18.75;40.66
75747;BME280;64363;52.198;21.020;2023-03-23T13:59:14;99406.53;;;18.69;40.84
75747;BME280;64363;52.198;21.020;2023-03-23T14:01:41;99413.91;;;18.67;41.13
75747;BME280;64363;52.198;21.020;2023-03-23T14:04:13;99410.34;;;18.66;41.12
75747;BME280;64363;52.198;21.020;2023-03-23T14:06:40;99424.59;;;18.57;41.58
75747;BME280;64363;52.198;21.020;2023-03-23T14:09:19;99435.09;;;18.49;41.69
75747;BME280;64363;52.198;21.020;2023-03-23T14:11:57;99434.34;;;18.47;41.93
75747;BME280;64363;52.198;21.020;2023-03-23T14:14:27;99441.94;;;18.42;42.42
75747;BME280;64363;52.198;21.020;2023-03-23T14:17:07;99446.47;;;18.42;42.41
75747;BME280;64363;52.198;21.020;2023-03-23T14:19:38;99433.06;;;18.18;43.21
75747;BME280;64363;52.198;21.020;2023-03-23T14:22:04;99444.84;;;18.17;43.15
75747;BME280;64363;52.198;21.020;2023-03-23T14:24:31;99445.03;;;18.03;44.08
75747;BME280;64363;52.198;21.020;2023-03-23T14:27:14;99450.19;;;18.06;44.66